Time;durP1;ratioP1;P1;durP2;ratioP2;P2;SDS_P1;SDS_P2;PMS_P1;PMS_P2;Temp;Humidity;BMP_temperature;BMP_pressure;BME280_temperature;BME280_humidity;BME280_pressure;Samples;Min_cycle;Max_cycle;Signal;HPM_P1;HPM_P2
2022/11/03 00:01:03;;;;;;;10.52;2.55;;;12.80;70.70;;;;;;5045351;28;20040;-68
2022/11/03 00:03:29;;;;;;;9.50;2.70;;;12.70;70.80;;;;;;5038480;28;20040;-68
2022/11/03 00:06:03;;;;;;;9.57;2.30;;;12.80;70.80;;;;;;5045210;28;20025;-68
2022/11/03 00:08:29;;;;;;;12.25;2.80;;;12.80;70.90;;;;;;5040786;28;20211;-68
2022/11/03 00:11:11;;;;;;;11.05;2.60;;;12.80;70.90;;;;;;5051788;28;20070;-68
2022/11/03 00:13:39;;;;;;;8.18;2.63;;;12.70;71.00;;;;;;5041484;28;20441;-68
2022/11/03 00:16:06;;;;;;;8.80;2.30;;;12.80;71.00;;;;;;5050070;28;20503;-68
2022/11/03 00:18:31;;;;;;;8.18;2.70;;;12.80;71.10;;;;;;5051261;28;20052;-68
2022/11/03 00:21:03;;;;;;;8.82;2.58;;;12.80;71.20;;;;;;5041334;28;20021;-68
2022/11/03 00:23:31;;;;;;;9.55;2.80;;;12.80;71.30;;;;;;5043561;28;20029;-68
2022/11/03 00:26:04;;;;;;;8.00;2.55;;;12.80;71.40;;;;;;5049073;28;20028;-68
2022/11/03 00:28:31;;;;;;;10.65;2.90;;;12.80;71.40;;;;;;5043856;28;20028;-68
2022/11/03 00:30:57;;;;;;;8.80;2.70;;;12.70;71.60;;;;;;5049645;28;20375;-68
2022/11/03 00:33:25;;;;;;;8.57;2.33;;;12.70;71.70;;;;;;5043017;28;20037;-68
2022/11/03 00:35:56;;;;;;;8.15;2.40;;;12.80;71.50;;;;;;5048175;28;20032;-68
2022/11/03 00:38:21;;;;;;;10.77;3.00;;;12.80;71.70;;;;;;5047095;28;20025;-68
2022/11/03 00:40:53;;;;;;;9.02;2.45;;;12.80;71.70;;;;;;5046969;28;20566;-68
2022/11/03 00:43:19;;;;;;;11.57;3.22;;;12.80;71.70;;;;;;5047499;28;20025;-69
2022/11/03 00:45:45;;;;;;;11.35;2.83;;;12.80;71.80;;;;;;5046479;28;20495;-68
2022/11/03 00:48:28;;;;;;;7.90;2.35;;;12.80;71.80;;;;;;5048743;28;20087;-68
2022/11/03 00:50:58;;;;;;;9.25;2.50;;;12.80;71.80;;;;;;5041839;28;20043;-67
2022/11/03 00:53:24;;;;;;;7.45;2.45;;;12.80;71.70;;;;;;5041633;28;20033;-68
2022/11/03 00:55:50;;;;;;;7.20;2.42;;;12.80;71.70;;;;;;5043299;28;20549;-69
2022/11/03 00:58:15;;;;;;;9.02;2.40;;;12.90;71.60;;;;;;5049878;28;20021;-70
2022/11/03 01:00:41;;;;;;;7.43;2.22;;;12.80;71.50;;;;;;5046858;28;20501;-70
2022/11/03 01:03:06;;;;;;;8.43;2.10;;;12.80;71.50;;;;;;5047841;28;20021;-69
2022/11/03 01:08:16;;;;;;;7.88;2.30;;;12.80;71.70;;;;;;5042062;28;20069;-67
2022/11/03 01:11:42;;;;;;;8.85;3.10;;;12.80;71.80;;;;;;5039658;28;20057;-68
2022/11/03 01:13:27;;;;;;;6.30;2.45;;;12.70;72.00;;;;;;5045539;28;20549;-67
2022/11/03 01:15:57;;;;;;;8.88;2.30;;;12.70;72.00;;;;;;5047823;28;20033;-68
2022/11/03 01:18:24;;;;;;;9.23;2.47;;;12.70;72.20;;;;;;5044484;28;20036;-69
2022/11/03 01:20:56;;;;;;;9.00;2.75;;;12.70;72.20;;;;;;5044912;28;20163;-69
2022/11/03 01:23:25;;;;;;;;;;;12.60;72.30;;;;;;5046607;28;20028;-68
2022/11/03 01:25:50;;;;;;;6.10;2.20;;;12.50;72.60;;;;;;5044759;28;19916;-69
2022/11/03 01:28:16;;;;;;;9.15;2.30;;;12.50;72.80;;;;;;5050527;28;20033;-68
2022/11/03 01:30:41;;;;;;;6.53;2.10;;;12.50;73.00;;;;;;5045107;28;20044;-70
2022/11/03 01:33:07;;;;;;;9.55;2.40;;;12.40;73.20;;;;;;5049273;28;20148;-70
2022/11/03 01:35:32;;;;;;;8.25;2.50;;;12.40;73.30;;;;;;5042421;28;20485;-70
2022/11/03 01:37:58;;;;;;;11.80;2.80;;;12.40;73.30;;;;;;5050787;28;20584;-70
2022/11/03 01:40:24;;;;;;;11.38;3.30;;;12.30;73.70;;;;;;5045902;28;20537;-71
2022/11/03 01:42:49;;;;;;;8.60;2.65;;;12.30;73.80;;;;;;5047353;28;20075;-71
2022/11/03 01:45:15;;;;;;;7.10;2.50;;;12.30;73.90;;;;;;5048145;28;20021;-71
2022/11/03 01:47:42;;;;;;;8.65;2.38;;;12.30;73.80;;;;;;5050974;28;20060;-71
2022/11/03 01:50:11;;;;;;;8.10;2.50;;;12.30;73.90;;;;;;5045623;28;20021;-71
2022/11/03 01:52:43;;;;;;;8.18;2.78;;;12.30;73.90;;;;;;5048365;28;20051;-70
2022/11/03 01:55:14;;;;;;;8.98;2.30;;;12.30;74.00;;;;;;5048395;28;20033;-70
2022/11/03 01:58:00;;;;;;;7.85;2.33;;;12.30;73.90;;;;;;5046345;28;20032;-70
2022/11/03 02:00:26;;;;;;;7.40;2.28;;;12.40;74.10;;;;;;5044228;28;20128;-71
2022/11/03 02:02:53;;;;;;;10.73;2.50;;;12.30;74.10;;;;;;5044270;28;20112;-70
2022/11/03 02:05:21;;;;;;;5.45;2.22;;;12.30;74.40;;;;;;5046587;28;20026;-71
2022/11/03 02:07:56;;;;;;;9.80;2.88;;;12.30;74.50;;;;;;5045400;28;20032;-70
2022/11/03 02:10:23;;;;;;;10.10;2.83;;;12.20;74.70;;;;;;5046398;28;20547;-69
2022/11/03 02:12:50;;;;;;;10.02;2.33;;;12.20;74.60;;;;;;5047641;28;20031;-69
2022/11/03 02:15:17;;;;;;;11.05;3.03;;;12.20;74.70;;;;;;5042445;28;20442;-70
2022/11/03 02:17:45;;;;;;;7.03;2.42;;;12.20;74.70;;;;;;5043847;28;20495;-70
2022/11/03 02:20:16;;;;;;;8.25;2.03;;;12.20;74.80;;;;;;5044356;28;20029;-70
2022/11/03 02:23:16;;;;;;;9.43;2.33;;;12.20;74.80;;;;;;5045417;28;20048;-70
2022/11/03 02:25:46;;;;;;;7.63;2.47;;;12.20;74.90;;;;;;5040957;28;20029;-70
2022/11/03 02:28:16;;;;;;;9.45;2.35;;;12.20;74.80;;;;;;5041643;28;20078;-69
2022/11/03 02:30:57;;;;;;;8.07;2.47;;;12.20;74.80;;;;;;5048181;28;20025;-72
2022/11/03 02:34:05;;;;;;;9.23;2.78;;;12.20;74.60;;;;;;5044480;28;20465;-72
2022/11/03 02:36:56;;;;;;;7.57;2.10;;;12.20;74.70;;;;;;5026878;28;20053;-70
2022/11/03 02:39:30;;;;;;;8.45;2.47;;;12.10;74.80;;;;;;5043305;28;20040;-71
2022/11/03 02:41:59;;;;;;;8.75;2.45;;;12.10;75.00;;;;;;5042608;28;20395;-70
2022/11/03 02:44:27;;;;;;;8.35;2.38;;;12.10;74.90;;;;;;5048635;28;20020;-70
2022/11/03 02:46:57;;;;;;;9.45;2.75;;;12.10;74.80;;;;;;5047359;28;20031;-70
2022/11/03 02:49:23;;;;;;;11.88;3.10;;;12.10;75.10;;;;;;5048345;28;20021;-69
2022/11/03 02:51:58;;;;;;;8.23;2.60;;;12.10;75.30;;;;;;5039213;28;20021;-69
2022/11/03 02:54:27;;;;;;;9.98;2.63;;;12.10;75.30;;;;;;5049196;28;20021;-69
2022/11/03 02:56:56;;;;;;;7.53;2.30;;;12.10;75.10;;;;;;5037539;28;20487;-70
2022/11/03 02:59:29;;;;;;;6.13;2.00;;;12.20;75.00;;;;;;5039693;28;20115;-72
2022/11/03 03:02:11;;;;;;;10.68;2.83;;;12.10;75.10;;;;;;5045000;28;20112;-70
2022/11/03 03:04:45;;;;;;;8.45;2.40;;;12.10;75.20;;;;;;5041357;28;20029;-71
2022/11/03 03:07:26;;;;;;;7.38;2.30;;;12.20;75.20;;;;;;5040589;28;20045;-71
2022/11/03 03:10:00;;;;;;;8.98;2.50;;;12.20;75.40;;;;;;5043025;28;20032;-70
2022/11/03 03:12:27;;;;;;;9.05;2.65;;;12.10;75.60;;;;;;5046158;28;20040;-71
2022/11/03 03:14:55;;;;;;;5.25;1.80;;;12.10;75.50;;;;;;5044406;28;20121;-70
2022/11/03 03:17:40;;;;;;;10.20;2.83;;;12.10;75.80;;;;;;5040215;28;20033;-71
2022/11/03 03:20:13;;;;;;;8.90;2.30;;;12.10;75.90;;;;;;5047444;28;20023;-70
2022/11/03 03:22:43;;;;;;;7.25;2.33;;;12.10;75.70;;;;;;5043565;28;20371;-71
2022/11/03 03:25:24;;;;;;;8.18;2.45;;;12.10;75.90;;;;;;5043279;28;20017;-70
2022/11/03 03:27:54;;;;;;;9.50;2.67;;;12.10;75.90;;;;;;5045491;28;20021;-71
2022/11/03 03:30:20;;;;;;;7.47;2.53;;;12.00;75.90;;;;;;5039178;28;20122;-73
2022/11/03 03:32:48;;;;;;;7.38;2.47;;;12.10;75.90;;;;;;5040894;28;20039;-71
2022/11/03 03:35:23;;;;;;;7.00;2.65;;;12.10;75.80;;;;;;5045421;28;20037;-71
2022/11/03 03:37:52;;;;;;;7.18;2.38;;;12.10;75.80;;;;;;5048562;28;20029;-71
2022/11/03 03:40:24;;;;;;;7.25;2.40;;;12.10;75.70;;;;;;5044590;28;20391;-70
2022/11/03 03:42:51;;;;;;;11.57;2.53;;;12.10;75.80;;;;;;5041256;28;20112;-72
2022/11/03 03:45:19;;;;;;;6.45;2.22;;;12.10;75.90;;;;;;5040768;28;20037;-71
2022/11/03 03:47:45;;;;;;;10.52;2.75;;;12.10;76.00;;;;;;5047489;28;20021;-71
2022/11/03 03:50:11;;;;;;;9.88;2.53;;;12.10;75.90;;;;;;5044971;28;20029;-70
2022/11/03 03:52:37;;;;;;;5.15;1.63;;;12.10;75.90;;;;;;5045730;28;20495;-70
2022/11/03 03:55:06;;;;;;;9.45;2.10;;;12.10;75.90;;;;;;5045743;28;20074;-69
2022/11/03 03:57:32;;;;;;;7.15;2.35;;;12.00;76.30;;;;;;5041165;28;20317;-71
2022/11/03 03:59:57;;;;;;;8.50;2.40;;;12.00;76.30;;;;;;5035131;28;20063;-73
2022/11/03 04:02:23;;;;;;;5.93;2.30;;;12.00;76.20;;;;;;5043034;28;20056;-72
2022/11/03 04:04:48;;;;;;;10.07;2.40;;;12.10;76.20;;;;;;5045406;28;20044;-71
2022/11/03 04:09:58;;;;;;;8.35;2.28;;;12.00;76.20;;;;;;5041471;28;20139;-70
2022/11/03 04:23:25;;;;;;;7.88;2.70;;;12.10;76.20;;;;;;5045905;28;20399;-69
2022/11/03 04:25:53;;;;;;;7.55;2.28;;;12.10;76.40;;;;;;5049388;28;20028;-73
2022/11/03 04:28:19;;;;;;;6.30;2.17;;;12.10;76.70;;;;;;5043498;28;20380;-70
2022/11/03 04:30:44;;;;;;;7.63;2.47;;;12.10;76.50;;;;;;5051203;28;20025;-73
2022/11/03 04:33:15;;;;;;;6.57;2.40;;;12.10;76.40;;;;;;5046619;28;20032;-70
2022/11/03 04:35:44;;;;;;;7.65;2.50;;;12.20;76.30;;;;;;5049726;28;20473;-71
2022/11/03 04:38:13;;;;;;;10.30;2.47;;;12.10;76.40;;;;;;5045617;28;20131;-70
2022/11/03 04:40:41;;;;;;;6.72;2.25;;;12.20;76.60;;;;;;5049822;28;20025;-69
2022/11/03 04:43:14;;;;;;;8.00;2.35;;;12.20;76.50;;;;;;5048120;28;20103;-70
2022/11/03 04:45:43;;;;;;;5.78;1.98;;;12.20;76.40;;;;;;5048326;28;20055;-71
2022/11/03 04:48:16;;;;;;;5.68;2.05;;;12.30;76.20;;;;;;5047270;28;20306;-71
2022/11/03 04:50:42;;;;;;;8.15;2.13;;;12.30;76.00;;;;;;5042496;28;20028;-72
2022/11/03 04:53:13;;;;;;;5.80;2.15;;;12.30;75.80;;;;;;5042715;28;20506;-72
2022/11/03 04:55:40;;;;;;;8.35;2.08;;;12.40;75.80;;;;;;5048766;28;20030;-70
2022/11/03 04:58:30;;;;;;;6.05;2.00;;;12.40;75.80;;;;;;5040773;28;20204;-71
2022/11/03 05:00:59;;;;;;;5.30;1.85;;;12.40;75.70;;;;;;5044294;28;20092;-72
2022/11/03 05:03:28;;;;;;;7.13;2.53;;;12.40;75.80;;;;;;5040793;28;20033;-70
2022/11/03 05:05:54;;;;;;;5.07;1.92;;;12.30;75.80;;;;;;5045574;28;20104;-71
2022/11/03 05:08:20;;;;;;;6.88;2.00;;;12.40;75.90;;;;;;5044916;28;20459;-70
2022/11/03 05:10:48;;;;;;;6.85;2.55;;;12.40;75.90;;;;;;5046140;28;20100;-72
2022/11/03 05:13:28;;;;;;;6.50;2.00;;;12.40;76.10;;;;;;5045174;28;20017;-72
2022/11/03 05:16:05;;;;;;;9.20;2.95;;;12.40;76.00;;;;;;5040862;28;20030;-70
2022/11/03 05:18:35;;;;;;;5.22;2.00;;;12.40;77.10;;;;;;5042842;28;20060;-73
2022/11/03 05:21:14;;;;;;;6.68;2.15;;;12.40;76.90;;;;;;5047074;28;20017;-72
2022/11/03 05:23:47;;;;;;;4.88;1.98;;;12.40;76.20;;;;;;5046813;28;20035;-72
2022/11/03 05:26:28;;;;;;;6.63;2.10;;;12.50;76.00;;;;;;5041790;28;20025;-72
2022/11/03 05:29:01;;;;;;;6.40;2.08;;;12.50;75.90;;;;;;5047915;28;20025;-72
2022/11/03 05:31:28;;;;;;;6.63;1.95;;;12.50;76.00;;;;;;5039849;28;20483;-72
2022/11/03 05:34:00;;;;;;;7.75;1.90;;;12.50;76.00;;;;;;5045641;28;20540;-70
2022/11/03 05:36:28;;;;;;;7.30;2.55;;;12.50;75.90;;;;;;5034742;28;20033;-70
2022/11/03 05:39:27;;;;;;;7.55;2.35;;;12.60;75.80;;;;;;5048461;28;20024;-70
2022/11/03 05:41:54;;;;;;;7.63;2.50;;;12.50;76.30;;;;;;5041948;28;20036;-70
2022/11/03 05:44:38;;;;;;;8.23;2.38;;;12.50;76.50;;;;;;5049201;28;20092;-70
2022/11/03 05:47:36;;;;;;;7.50;2.50;;;12.50;76.60;;;;;;5042387;28;20379;-71
2022/11/03 05:50:21;;;;;;;5.43;2.05;;;12.50;76.80;;;;;;5047209;28;20052;-70
2022/11/03 05:52:50;;;;;;;6.85;1.90;;;12.40;76.80;;;;;;5046383;28;20021;-70
2022/11/03 05:55:21;;;;;;;6.45;2.30;;;12.40;76.80;;;;;;5041470;28;20025;-71
2022/11/03 05:57:47;;;;;;;9.52;2.80;;;12.40;77.00;;;;;;5045793;28;20099;-71
2022/11/03 06:00:29;;;;;;;6.93;2.28;;;12.40;77.20;;;;;;5042742;28;20164;-70
2022/11/03 06:02:55;;;;;;;5.28;1.80;;;12.40;77.20;;;;;;5043586;28;20029;-70
2022/11/03 06:05:23;;;;;;;10.18;2.35;;;12.40;77.00;;;;;;5046270;28;20025;-71
2022/11/03 06:07:52;;;;;;;7.45;2.30;;;12.40;76.90;;;;;;5049553;28;20029;-71
2022/11/03 06:10:29;;;;;;;8.63;2.40;;;12.40;77.10;;;;;;5046770;28;20033;-71
2022/11/03 06:13:00;;;;;;;6.95;2.40;;;12.40;77.20;;;;;;5046489;28;20029;-71
2022/11/03 06:15:33;;;;;;;8.00;2.47;;;12.30;77.20;;;;;;5038927;28;20103;-71
2022/11/03 06:18:09;;;;;;;10.82;2.65;;;12.30;77.30;;;;;;5045117;28;20100;-71
2022/11/03 06:20:35;;;;;;;6.65;2.53;;;12.40;77.30;;;;;;5047605;28;20492;-70
2022/11/03 06:23:01;;;;;;;7.72;2.20;;;12.30;77.80;;;;;;5047630;28;20056;-71
2022/11/03 06:25:30;;;;;;;7.68;2.55;;;12.30;77.80;;;;;;5046626;28;20097;-72
2022/11/03 06:28:05;;;;;;;5.00;2.00;;;12.30;77.50;;;;;;5041158;28;20044;-73
2022/11/03 06:30:34;;;;;;;7.10;2.40;;;12.30;77.40;;;;;;5038284;28;20021;-71
2022/11/03 06:33:14;;;;;;;6.40;2.53;;;12.40;77.50;;;;;;5044764;28;20036;-72
2022/11/03 06:35:40;;;;;;;9.30;2.42;;;12.40;77.40;;;;;;5038643;28;20029;-72
2022/11/03 06:38:28;;;;;;;5.88;2.45;;;12.30;77.70;;;;;;5035117;28;20108;-71
2022/11/03 06:40:54;;;;;;;8.38;2.42;;;12.40;77.60;;;;;;5046580;28;20035;-70
2022/11/03 06:43:40;;;;;;;9.35;2.55;;;12.40;77.60;;;;;;5046933;28;20021;-71
2022/11/03 06:46:17;;;;;;;9.15;2.55;;;12.30;77.60;;;;;;5041814;28;20053;-70
2022/11/03 06:48:43;;;;;;;8.10;2.58;;;12.40;77.50;;;;;;5042081;28;20051;-72
2022/11/03 06:51:21;;;;;;;9.35;2.25;;;12.40;77.30;;;;;;5048883;28;20021;-70
2022/11/03 06:53:49;;;;;;;6.95;2.20;;;12.50;77.20;;;;;;5043858;28;20033;-71
2022/11/03 06:56:19;;;;;;;6.25;2.67;;;12.50;77.20;;;;;;5043280;28;20020;-71
2022/11/03 06:58:47;;;;;;;6.63;2.42;;;12.50;77.40;;;;;;5044633;28;20040;-71
2022/11/03 07:01:21;;;;;;;7.82;2.97;;;12.50;77.50;;;;;;5047334;28;20017;-71
2022/11/03 07:03:49;;;;;;;10.77;2.95;;;12.50;77.80;;;;;;5041136;28;20029;-70
2022/11/03 07:06:23;;;;;;;7.97;2.30;;;12.50;77.90;;;;;;5045289;28;20480;-71
2022/11/03 07:09:00;;;;;;;6.22;2.15;;;12.50;77.80;;;;;;5045402;28;20032;-70
2022/11/03 07:11:40;;;;;;;7.10;2.17;;;12.50;78.00;;;;;;5033025;28;20025;-70
2022/11/03 07:14:15;;;;;;;8.40;2.42;;;12.50;78.00;;;;;;5040687;28;20101;-69
2022/11/03 07:16:43;;;;;;;8.88;2.67;;;12.50;78.10;;;;;;5044720;28;20032;-70
2022/11/03 07:19:17;;;;;;;9.82;3.05;;;12.50;78.20;;;;;;5048162;28;20009;-69
2022/11/03 07:21:49;;;;;;;8.25;2.88;;;12.60;78.20;;;;;;5035740;28;20419;-70
2022/11/03 07:24:24;;;;;;;10.85;3.30;;;12.60;78.50;;;;;;5047670;28;20021;-69
2022/11/03 07:26:59;;;;;;;6.25;2.00;;;12.60;78.60;;;;;;5043863;28;20049;-69
2022/11/03 07:29:27;;;;;;;7.40;2.72;;;12.60;78.50;;;;;;5039924;28;20029;-69
2022/11/03 07:31:55;;;;;;;10.00;2.55;;;12.70;78.50;;;;;;5036411;28;20079;-68
2022/11/03 07:34:26;;;;;;;6.35;1.98;;;12.70;78.40;;;;;;5046282;28;20033;-68
2022/11/03 07:36:52;;;;;;;7.15;3.03;;;12.70;78.30;;;;;;5041439;28;20044;-68
2022/11/03 07:39:20;;;;;;;7.18;2.35;;;12.70;78.00;;;;;;5044636;28;20028;-68
2022/11/03 07:41:47;;;;;;;7.97;2.50;;;12.70;78.10;;;;;;5047654;28;20067;-67
2022/11/03 07:44:19;;;;;;;8.93;2.85;;;12.80;77.90;;;;;;5046426;28;20387;-68
2022/11/03 07:46:46;;;;;;;7.82;2.80;;;12.90;77.70;;;;;;5037192;28;20112;-68
2022/11/03 07:49:27;;;;;;;8.77;3.10;;;12.90;77.70;;;;;;5040218;28;20440;-68
2022/11/03 07:51:54;;;;;;;7.95;2.58;;;12.90;77.90;;;;;;5032936;28;20550;-68
2022/11/03 07:54:30;;;;;;;9.50;2.70;;;12.90;77.70;;;;;;5042700;28;20108;-68
2022/11/03 07:57:04;;;;;;;5.28;2.20;;;13.00;77.60;;;;;;5043876;28;20017;-68
2022/11/03 07:59:38;;;;;;;7.32;2.63;;;13.00;77.60;;;;;;5036810;28;20048;-69
2022/11/03 08:02:31;;;;;;;6.63;2.50;;;13.10;77.50;;;;;;5039195;28;20444;-68
2022/11/03 08:04:57;;;;;;;6.35;2.38;;;13.10;77.50;;;;;;5047809;28;20052;-69
2022/11/03 08:07:23;;;;;;;7.47;2.75;;;13.20;77.40;;;;;;5042235;28;20769;-68
2022/11/03 08:09:49;;;;;;;8.52;2.72;;;13.20;77.30;;;;;;5042697;28;20061;-69
2022/11/03 08:12:14;;;;;;;6.95;2.50;;;13.30;77.30;;;;;;5046178;28;20073;-69
2022/11/03 08:14:40;;;;;;;7.22;2.40;;;13.20;77.20;;;;;;5039757;28;20021;-69
2022/11/03 08:17:05;;;;;;;11.68;2.75;;;13.30;77.20;;;;;;5040980;28;20025;-68
2022/11/03 08:19:31;;;;;;;8.00;2.42;;;13.30;77.00;;;;;;5038413;28;20021;-69
2022/11/03 08:21:57;;;;;;;8.95;2.90;;;13.40;76.90;;;;;;5040745;28;20038;-69
2022/11/03 08:24:22;;;;;;;8.30;2.40;;;13.30;77.00;;;;;;5044689;28;20384;-68
2022/11/03 08:26:48;;;;;;;5.43;2.42;;;13.30;77.00;;;;;;5048930;28;20033;-68
2022/11/03 08:29:13;;;;;;;6.82;2.33;;;13.40;76.90;;;;;;5042579;28;20167;-68
2022/11/03 08:31:39;;;;;;;8.25;2.70;;;13.40;76.80;;;;;;5044742;28;20728;-67
2022/11/03 08:34:04;;;;;;;7.18;2.67;;;13.40;76.80;;;;;;5042862;28;20032;-68
2022/11/03 08:36:30;;;;;;;6.65;2.50;;;13.50;76.80;;;;;;5039842;28;20037;-70
2022/11/03 08:38:55;;;;;;;9.98;2.67;;;13.50;76.80;;;;;;5045691;28;20383;-70
2022/11/03 08:41:21;;;;;;;10.75;3.17;;;13.50;76.60;;;;;;5042523;28;20021;-70
2022/11/03 08:43:47;;;;;;;9.80;2.88;;;13.50;76.50;;;;;;5046276;28;20465;-70
2022/11/03 08:46:12;;;;;;;9.35;2.70;;;13.50;76.50;;;;;;5049819;28;20029;-70
2022/11/03 08:48:38;;;;;;;13.32;3.30;;;13.50;76.40;;;;;;5049403;28;20029;-69
2022/11/03 08:51:03;;;;;;;7.22;2.40;;;13.60;76.50;;;;;;5037336;28;20041;-68
2022/11/03 08:53:29;;;;;;;10.18;2.63;;;13.60;76.30;;;;;;5047138;28;20025;-68
2022/11/03 08:55:55;;;;;;;7.90;2.80;;;13.60;76.40;;;;;;5044887;28;20025;-70
2022/11/03 08:58:21;;;;;;;8.35;3.13;;;13.60;76.30;;;;;;5050225;28;20032;-69
2022/11/03 09:00:48;;;;;;;9.13;2.78;;;13.60;76.30;;;;;;5045188;28;20074;-66
2022/11/03 09:03:14;;;;;;;6.05;2.15;;;13.60;76.20;;;;;;5045627;28;20033;-68
2022/11/03 09:05:40;;;;;;;7.55;2.90;;;13.60;76.20;;;;;;5043675;28;20075;-68
2022/11/03 09:08:05;;;;;;;6.70;2.45;;;13.70;76.10;;;;;;5046004;28;20036;-68
2022/11/03 09:10:31;;;;;;;8.38;2.47;;;13.80;76.00;;;;;;5048927;28;20044;-68
2022/11/03 09:12:57;;;;;;;7.25;2.20;;;13.70;75.80;;;;;;5045269;28;20018;-69
2022/11/03 09:15:22;;;;;;;7.47;2.90;;;13.80;75.90;;;;;;5046833;28;20033;-68
2022/11/03 09:17:48;;;;;;;6.63;2.42;;;13.80;75.80;;;;;;5051338;28;20052;-69
2022/11/03 09:20:13;;;;;;;7.38;2.60;;;13.90;75.70;;;;;;5049242;28;20048;-68
2022/11/03 09:22:39;;;;;;;6.88;2.50;;;13.90;75.60;;;;;;5051235;28;20027;-68
2022/11/03 09:25:05;;;;;;;7.13;2.22;;;14.00;75.60;;;;;;5045980;28;20029;-68
2022/11/03 09:27:31;;;;;;;5.10;1.88;;;14.00;75.60;;;;;;5049280;28;20044;-68
2022/11/03 09:29:56;;;;;;;7.50;2.70;;;13.90;75.70;;;;;;5045458;28;20021;-68
2022/11/03 09:32:22;;;;;;;8.52;3.10;;;14.00;75.70;;;;;;5049089;28;20037;-68
2022/11/03 09:34:48;;;;;;;10.27;2.95;;;14.00;75.60;;;;;;5047160;28;20039;-68
2022/11/03 09:37:14;;;;;;;8.65;2.53;;;14.00;75.60;;;;;;5045223;28;20029;-68
2022/11/03 09:39:40;;;;;;;9.30;2.95;;;14.10;75.40;;;;;;5048666;28;20013;-68
2022/11/03 09:42:07;;;;;;;6.60;2.67;;;14.10;75.20;;;;;;5048335;28;20029;-68
2022/11/03 09:44:35;;;;;;;8.75;2.55;;;14.10;75.10;;;;;;5049122;28;20514;-68
2022/11/03 09:47:01;;;;;;;8.77;2.92;;;14.20;74.90;;;;;;5043632;28;20519;-68
2022/11/03 09:49:31;;;;;;;9.00;3.03;;;14.30;74.70;;;;;;5046229;28;20069;-68
2022/11/03 09:51:57;;;;;;;7.35;2.58;;;14.40;74.60;;;;;;5047022;28;20028;-68
2022/11/03 09:54:23;;;;;;;6.15;2.80;;;14.40;74.30;;;;;;5049669;28;20024;-68
2022/11/03 09:56:49;;;;;;;11.40;3.10;;;14.50;74.10;;;;;;5045277;28;20404;-68
2022/11/03 09:59:20;;;;;;;7.70;3.03;;;14.50;73.90;;;;;;5046862;28;20028;-68
2022/11/03 10:01:48;;;;;;;12.77;3.50;;;14.60;73.90;;;;;;5045671;28;20036;-68
2022/11/03 10:04:19;;;;;;;9.55;3.40;;;14.50;73.50;;;;;;5045652;28;20104;-68
2022/11/03 10:06:44;;;;;;;6.15;2.50;;;14.50;73.50;;;;;;5043208;28;20028;-68
2022/11/03 10:09:16;;;;;;;7.47;3.05;;;14.60;73.50;;;;;;5047893;28;20021;-68
2022/11/03 10:11:43;;;;;;;8.75;2.58;;;14.60;73.40;;;;;;5036827;28;20025;-68
2022/11/03 10:14:13;;;;;;;6.90;2.60;;;14.60;73.30;;;;;;5043161;28;20385;-68
2022/11/03 10:16:40;;;;;;;10.02;3.00;;;14.70;73.20;;;;;;5047166;28;20104;-68
2022/11/03 10:19:17;;;;;;;8.15;2.50;;;14.70;72.90;;;;;;5044092;28;20128;-69
2022/11/03 10:21:43;;;;;;;8.95;2.80;;;14.70;72.90;;;;;;5046770;28;20020;-69
2022/11/03 10:24:13;;;;;;;10.15;2.80;;;14.70;72.90;;;;;;5049297;28;20021;-69
2022/11/03 10:26:47;;;;;;;7.10;2.53;;;14.70;72.70;;;;;;5046227;28;20111;-69
2022/11/03 10:29:24;;;;;;;7.35;2.65;;;14.70;72.70;;;;;;5040752;28;20068;-69
2022/11/03 10:31:55;;;;;;;8.77;2.75;;;14.60;72.60;;;;;;5046753;28;20053;-68
2022/11/03 10:34:25;;;;;;;7.00;2.60;;;14.70;72.60;;;;;;5049733;28;20108;-68
2022/11/03 10:37:20;;;;;;;6.20;2.33;;;14.70;72.30;;;;;;5036530;28;20342;-69
2022/11/03 10:39:47;;;;;;;8.55;2.85;;;14.60;72.50;;;;;;5040429;28;20107;-69
2022/11/03 10:42:19;;;;;;;5.38;2.33;;;14.60;72.30;;;;;;5041274;28;20051;-68
2022/11/03 10:44:45;;;;;;;6.28;2.20;;;14.70;72.40;;;;;;5046917;28;20021;-69
2022/11/03 10:47:31;;;;;;;6.25;2.25;;;14.70;72.40;;;;;;5041817;28;20032;-69
2022/11/03 10:49:57;;;;;;;4.70;2.08;;;14.70;72.10;;;;;;5038331;28;20495;-69
2022/11/03 10:52:26;;;;;;;10.30;2.70;;;14.70;71.70;;;;;;5047078;28;20096;-68
2022/11/03 10:54:55;;;;;;;9.95;2.80;;;14.70;71.70;;;;;;5047231;28;20036;-68
2022/11/03 10:57:21;;;;;;;15.55;3.30;;;14.70;71.60;;;;;;5041574;28;20029;-68
2022/11/03 10:59:50;;;;;;;8.73;2.60;;;14.80;71.50;;;;;;5040520;28;20057;-68
2022/11/03 11:02:30;;;;;;;6.75;2.50;;;14.80;71.40;;;;;;5045989;28;20434;-68
2022/11/03 11:05:01;;;;;;;6.50;2.35;;;14.80;71.10;;;;;;5042651;28;20131;-68
2022/11/03 11:07:41;;;;;;;6.55;2.30;;;14.80;71.00;;;;;;5040602;28;20021;-68
2022/11/03 11:10:28;;;;;;;7.30;2.60;;;14.80;70.90;;;;;;5043293;28;20065;-68
2022/11/03 11:13:21;;;;;;;5.80;2.30;;;14.90;70.80;;;;;;5044849;28;20036;-69
2022/11/03 11:15:55;;;;;;;7.72;2.13;;;14.80;70.60;;;;;;5038358;28;20029;-69
2022/11/03 11:18:30;;;;;;;11.52;3.00;;;14.90;70.60;;;;;;5039860;28;20052;-68
2022/11/03 11:21:13;;;;;;;7.25;2.67;;;15.00;70.30;;;;;;5040012;28;20065;-68
2022/11/03 11:23:40;;;;;;;7.40;2.20;;;15.00;70.20;;;;;;5034227;28;20127;-69
2022/11/03 11:26:09;;;;;;;6.90;2.40;;;15.10;70.20;;;;;;5047471;28;20021;-68
2022/11/03 11:28:46;;;;;;;5.22;1.83;;;15.20;70.00;;;;;;5044952;28;20105;-68
2022/11/03 11:31:28;;;;;;;8.10;2.70;;;15.30;69.90;;;;;;5034230;28;20033;-68
2022/11/03 11:34:09;;;;;;;6.22;2.40;;;15.20;69.40;;;;;;5044820;28;20036;-68
2022/11/03 11:36:43;;;;;;;6.43;2.28;;;15.20;69.60;;;;;;5048123;28;20068;-68
2022/11/03 11:39:11;;;;;;;7.47;2.63;;;15.30;69.60;;;;;;5040150;28;20021;-68
2022/11/03 11:42:16;;;;;;;6.43;2.75;;;15.30;69.30;;;;;;5042572;28;20028;-68
2022/11/03 11:44:41;;;;;;;7.70;2.30;;;15.30;69.10;;;;;;5045096;28;20020;-68
2022/11/03 11:47:42;;;;;;;6.22;2.38;;;15.30;69.20;;;;;;5043761;28;20480;-68
2022/11/03 11:50:10;;;;;;;5.97;2.13;;;15.40;69.00;;;;;;5044897;28;20047;-68
2022/11/03 11:53:02;;;;;;;5.82;2.15;;;15.50;68.90;;;;;;5041267;28;20096;-70
2022/11/03 11:55:40;;;;;;;5.60;2.20;;;15.60;68.60;;;;;;5044128;28;20047;-68
2022/11/03 11:58:15;;;;;;;6.55;2.20;;;15.60;68.30;;;;;;5038260;28;20009;-68
2022/11/03 12:00:56;;;;;;;6.55;2.65;;;15.80;68.20;;;;;;5044686;28;20479;-69
2022/11/03 12:03:37;;;;;;;4.65;2.00;;;15.80;67.30;;;;;;5042099;28;20029;-68
2022/11/03 12:06:04;;;;;;;6.93;2.40;;;15.80;67.30;;;;;;5042528;28;20090;-69
2022/11/03 12:08:30;;;;;;;6.15;2.20;;;15.90;67.10;;;;;;5044871;28;20053;-69
2022/11/03 12:11:04;;;;;;;6.72;2.70;;;16.20;66.70;;;;;;5044079;28;20376;-68
2022/11/03 12:13:52;;;;;;;5.28;2.00;;;16.20;66.10;;;;;;5045479;28;20022;-68
2022/11/03 12:16:34;;;;;;;4.97;1.92;;;16.10;65.90;;;;;;5049921;28;20036;-68
2022/11/03 12:19:38;;;;;;;6.22;2.00;;;16.00;65.70;;;;;;5045177;28;20574;-68
2022/11/03 12:22:23;;;;;;;6.10;2.60;;;16.10;65.90;;;;;;5038077;28;20344;-68
2022/11/03 12:25:00;;;;;;;5.05;2.40;;;16.20;65.20;;;;;;5039500;28;20715;-68
2022/11/03 12:27:25;;;;;;;5.88;2.63;;;16.10;65.20;;;;;;5048084;28;20032;-68
2022/11/03 12:29:59;;;;;;;6.47;2.80;;;16.00;65.00;;;;;;5047148;28;20022;-68
2022/11/03 12:32:25;;;;;;;8.27;2.90;;;16.00;65.20;;;;;;5042165;28;20051;-68
2022/11/03 12:34:53;;;;;;;7.78;3.42;;;16.00;65.40;;;;;;5046692;28;20116;-68
2022/11/03 12:37:19;;;;;;;11.75;3.13;;;16.00;65.40;;;;;;5050325;28;20025;-68
2022/11/03 12:39:44;;;;;;;5.85;2.67;;;16.00;65.40;;;;;;5050843;28;20039;-68
2022/11/03 12:42:10;;;;;;;6.80;3.10;;;16.10;65.50;;;;;;5049483;28;20017;-68
2022/11/03 12:44:35;;;;;;;6.25;2.50;;;16.10;65.30;;;;;;5050299;28;20021;-68
2022/11/03 12:47:01;;;;;;;5.95;2.10;;;16.10;65.50;;;;;;5047162;28;20041;-68
2022/11/03 12:49:26;;;;;;;5.97;2.30;;;16.10;65.70;;;;;;5050755;28;20029;-68
2022/11/03 12:51:52;;;;;;;6.05;1.90;;;16.10;65.60;;;;;;5046715;28;20021;-69
2022/11/03 12:54:18;;;;;;;7.57;2.80;;;16.10;65.80;;;;;;5050244;28;20045;-69
2022/11/03 12:56:43;;;;;;;5.72;2.20;;;16.10;65.60;;;;;;5037080;28;20040;-69
2022/11/03 12:59:09;;;;;;;6.18;2.30;;;16.20;65.80;;;;;;5047000;28;20446;-69
2022/11/03 13:01:34;;;;;;;6.53;2.30;;;16.20;65.50;;;;;;5044896;28;20047;-69
2022/11/03 13:04:00;;;;;;;5.78;2.00;;;16.20;65.50;;;;;;5044661;28;20019;-69
2022/11/03 13:06:25;;;;;;;6.20;2.30;;;16.20;65.60;;;;;;5047897;28;20692;-69
2022/11/03 13:08:51;;;;;;;5.70;2.40;;;16.20;65.60;;;;;;5049868;28;20083;-69
2022/11/03 13:14:02;;;;;;;7.75;1.90;;;16.20;65.50;;;;;;5045061;28;20098;-69
2022/11/03 13:16:28;;;;;;;4.22;1.95;;;16.30;65.50;;;;;;5041662;28;20018;-68
2022/11/03 13:18:53;;;;;;;6.53;2.25;;;16.30;65.50;;;;;;5045889;28;20376;-69
2022/11/03 13:21:19;;;;;;;6.80;1.95;;;16.30;65.40;;;;;;5031053;28;20028;-69
2022/11/03 13:23:44;;;;;;;6.30;1.90;;;16.30;65.30;;;;;;5036967;28;20044;-69